Minot Air Force Base
KMIB : now visible

Airfield :











YOU CAN JOIN US ON...

 
LOGIN :

Register | Disclaimer

   EN    FR    IT 

 









Legend :    VFR   Marginal VFR   IFR   Intensive IFR   Very Intensive IFR
Visi :
Ceiling :
>= 8 km
>= 3000ft
5 to 8 km
1000 to 3000 ft
1500m to 5 km
500 to 1000 ft
800 to 1500m
200 to 500 ft
< 800m
< 200 ft
Symbols :   Thunderstorms  Fog  Heavy snow  Heavy precipitations  Wind > 20 kt






- Airport Elevation : 1667 ft


KMIB - Minot Air Force Base

CURRENT METAR :
  • 080459Z AUTO 32014G24KT 7SM TSRA FEW001 BKN043 OVC070 16/15 A2982 RMK AO2 TSB59 SLP097 $

EXPIRED METARs :
  • 080451Z AUTO 33020G25KT 3SM +RA BR VCTS FEW001 OVC035 16/15 A2979 RMK AO2 DZB22E23RAB23 TSB29E51 PRESFR SLP087 $
  • 080441Z AUTO 34019G35KT 2 1/2SM +TSRA BR FEW001 BKN031 OVC041 16/15 A2981 RMK AO2 VIS 1 5/8V2 1/2 VIS 1 1/2 RWY30 DZB22E23RAB23 TSB29 SLP094 $
  • 080429Z AUTO 31020G46KT 4SM +TSRA SCT027 OVC041 20/15 A2981 RMK AO2 DZB22E23RAB23 TSB29 SLP093 $
  • 080356Z AUTO 00000KT 10SM SCT043 OVC150 24/17 A2971 RMK AO2 SLP057 T02350170 $
  • 080256Z AUTO 14013KT 10SM OVC170 24/17 A2968 RMK AO2 SLP047 T02380168 57028 $

TAF COR TAF KMIB
Valid from the 08 at 04:00 until the 09 at 07:00 UTC


080450Z 0804/0907 13015G35KT 4800 -TSRA BKN060 QNH2965INS
TEMPO 0804/0806 17025G45KT 6000 TSRA SCT040CB BKN060
TEMPO 0806/0808 20040G55KT 1600 +TSRA SCT010CB OVC040
BECMG 0807/0808 18010G15KT 8000 SHRA BKN020 QNH2959INS
BECMG 0811/0812 27012KT 9999 NSW BKN020 510202 QNH2967INS
BECMG 0814/0815 27015G20KT 9999 SCT020 QNH2966INS
BECMG 0815/0816 26020G30KT 9999 SCT020 QNH2967INS TX28/0822Z TN22/0811Z
KZMP FIR / North America



MET'MAP, your aeronautical weather chart ! - Copyright ORBIFLY December 2007 - Disclaimer

ORBIFLY MET'MAP TEAM :

Programming & Development : Alexandra Zaïnal
Concept & original design : Baudouin d'Aumeries
Assistance for programming : Marc-Olivier Méhu
Technical & hardware support : Manuel Goepfert

Contact : metmap@orbifly.com




SOURCES & CREDITS :

   NOAA       Earth
Advisory